createdAt,value
2019-03-04T18:10:16.069Z,75.47
2019-03-04T18:10:47.543Z,76.27
2019-03-04T18:11:18.782Z,75.45
2019-03-04T18:11:49.991Z,74.38
2019-03-04T18:12:21.143Z,73.08
2019-03-04T18:12:56.447Z,72.00
2019-03-04T18:13:27.604Z,70.96
2019-03-04T18:13:58.864Z,69.06
2019-03-04T18:14:30.028Z,67.78
2019-03-04T18:15:01.258Z,66.70
2019-03-04T18:15:40.578Z,65.29
2019-03-04T18:16:11.800Z,64.75
2019-03-04T18:16:43.017Z,63.03
2019-03-04T18:17:14.268Z,61.88
2019-03-04T18:17:45.520Z,60.79
2019-03-04T18:18:16.750Z,59.86
2019-03-04T18:18:48.036Z,58.93
2019-03-04T18:19:19.300Z,57.75
2019-03-04T18:19:51.550Z,56.72
2019-03-04T18:20:22.786Z,56.10
2019-03-04T18:20:54.132Z,55.69
2019-03-04T18:21:25.353Z,55.65
2019-03-04T18:21:56.585Z,55.69
2019-03-04T18:22:29.655Z,55.90
2019-03-04T18:23:01.027Z,56.25
2019-03-04T18:23:32.171Z,56.76
2019-03-04T18:24:03.391Z,56.90
2019-03-04T18:24:34.650Z,57.34
2019-03-04T18:25:29.636Z,57.55
2019-03-04T18:26:09.264Z,58.07
2019-03-04T18:26:43.090Z,58.56
2019-03-04T18:27:14.378Z,58.47
2019-03-04T18:27:49.908Z,58.97
2019-03-04T18:28:57.205Z,59.40
2019-03-04T18:29:39.569Z,60.03
2019-03-04T18:30:28.177Z,60.56
2019-03-04T18:31:07.851Z,60.92
2019-03-04T18:31:53.836Z,61.39
2019-03-04T18:32:46.290Z,61.66
2019-03-04T18:33:35.999Z,62.09
2019-03-04T18:34:15.891Z,62.68
2019-03-04T18:35:14.523Z,63.46
2019-03-04T18:36:14.791Z,64.43
2019-03-04T18:37:01.547Z,64.49
2019-03-04T18:37:48.603Z,62.34
2019-03-04T18:38:56.979Z,60.81
2019-03-04T18:39:52.133Z,60.61
2019-03-04T18:40:46.362Z,58.66
2019-03-04T18:41:35.142Z,57.16
2019-03-04T18:42:19.923Z,55.24
2019-03-04T18:43:20.354Z,54.31
2019-03-04T18:44:03.113Z,54.06
2019-03-04T18:44:43.235Z,54.29
2019-03-04T18:45:42.937Z,54.35
2019-03-04T18:46:37.232Z,54.96
2019-03-04T18:47:37.834Z,55.38
2019-03-04T18:48:14.752Z,55.84
2019-03-04T18:48:53.140Z,56.37
2019-03-04T18:49:24.357Z,56.59
2019-03-04T18:49:57.423Z,56.92
2019-03-04T18:50:28.905Z,57.18
2019-03-04T18:51:00.077Z,57.50
2019-03-04T18:51:31.746Z,57.96
2019-03-04T18:52:02.919Z,58.00
2019-03-04T18:52:34.157Z,58.25
2019-03-04T18:53:05.336Z,58.54
2019-03-04T18:53:36.574Z,58.74
2019-03-04T18:54:08.529Z,58.96
2019-03-04T18:54:39.762Z,58.84
2019-03-04T18:55:10.938Z,59.00
2019-03-04T18:55:42.171Z,59.06
2019-03-04T18:56:21.756Z,59.19
2019-03-04T18:56:46.456Z,59.43
2019-03-04T18:57:17.607Z,59.66
2019-03-04T18:57:48.808Z,59.87
2019-03-04T18:58:19.959Z,60.06
2019-03-04T18:58:51.287Z,60.11
2019-03-04T18:59:22.457Z,60.24
2019-03-04T18:59:53.657Z,60.38
2019-03-04T19:00:25.390Z,60.51
2019-03-04T19:00:56.705Z,60.71
2019-03-04T19:01:27.864Z,60.76
2019-03-04T19:01:59.409Z,60.95
2019-03-04T19:02:30.576Z,61.06
2019-03-04T19:03:02.788Z,61.28
2019-03-04T19:03:33.977Z,61.51
2019-03-04T19:04:05.220Z,61.70
2019-03-04T19:04:37.504Z,61.79
2019-03-04T19:05:10.022Z,61.82
2019-03-04T19:05:41.260Z,61.95
2019-03-04T19:06:13.887Z,62.18
2019-03-04T19:06:45.142Z,62.36
2019-03-04T19:07:16.324Z,62.32
2019-03-04T19:07:48.517Z,62.40
2019-03-04T19:08:19.719Z,62.70
2019-03-04T19:08:50.900Z,63.17
2019-03-04T19:09:22.203Z,63.14
2019-03-04T19:09:53.359Z,63.19
2019-03-04T19:10:24.598Z,62.46
2019-03-04T19:10:55.872Z,62.06
2019-03-04T19:11:27.446Z,61.29
2019-03-04T19:11:58.841Z,60.19
2019-03-04T19:12:30.387Z,59.28
2019-03-04T19:13:01.915Z,57.96
2019-03-04T19:13:33.128Z,56.71
2019-03-04T19:14:04.427Z,55.75
2019-03-04T19:14:36.086Z,55.37
2019-03-04T19:15:09.952Z,54.97
2019-03-04T19:15:42.199Z,54.75
2019-03-04T19:16:13.773Z,55.07
2019-03-04T19:16:45.222Z,55.00
2019-03-04T19:17:16.359Z,55.10
2019-03-04T19:17:48.246Z,55.26
2019-03-04T19:18:20.324Z,55.54
2019-03-04T19:18:51.907Z,55.75
2019-03-04T19:19:23.601Z,56.06
2019-03-04T19:19:54.920Z,56.12
2019-03-04T19:20:26.775Z,56.46
2019-03-04T19:20:59.129Z,56.73
2019-03-04T19:21:30.643Z,56.98
2019-03-04T19:22:02.124Z,57.16
2019-03-04T19:22:33.473Z,57.38
2019-03-04T19:23:04.945Z,57.71
2019-03-04T19:23:36.398Z,57.84
2019-03-04T19:24:07.745Z,58.03
2019-03-04T19:24:39.057Z,58.26
2019-03-04T19:25:10.500Z,58.32
2019-03-04T19:25:41.958Z,58.62
2019-03-04T19:26:13.103Z,58.57
2019-03-04T19:26:44.321Z,59.09
2019-03-04T19:27:15.470Z,59.12
2019-03-04T19:27:46.786Z,59.25
2019-03-04T19:28:17.951Z,59.06
2019-03-04T19:28:49.182Z,58.97
2019-03-04T19:29:20.341Z,59.27
2019-03-04T19:29:53.421Z,59.66
2019-03-04T19:30:24.606Z,59.63
2019-03-04T19:30:55.814Z,59.94
2019-03-04T19:31:27.100Z,60.13
2019-03-04T19:31:58.292Z,60.53
2019-03-04T19:32:29.584Z,61.10
2019-03-04T19:33:00.754Z,61.78
2019-03-04T19:33:32.096Z,62.37
2019-03-04T19:34:03.285Z,62.64
2019-03-04T19:34:34.470Z,63.56
2019-03-04T19:35:08.922Z,64.29
2019-03-04T19:35:40.171Z,64.45
2019-03-04T19:36:11.424Z,64.42
2019-03-04T19:36:42.640Z,64.19
2019-03-04T19:37:13.774Z,63.67
2019-03-04T19:37:45.078Z,62.86
2019-03-04T19:38:16.467Z,62.82
2019-03-04T19:38:47.646Z,61.88
2019-03-04T19:39:18.786Z,61.41
2019-03-04T19:39:49.967Z,60.78
2019-03-04T19:40:21.136Z,59.81
2019-03-04T19:40:52.296Z,59.29
2019-03-04T19:41:23.490Z,58.56
2019-03-04T19:41:54.656Z,58.15
2019-03-04T19:42:25.805Z,57.62
2019-03-04T19:42:56.980Z,57.67
2019-03-04T19:43:32.812Z,57.91
2019-03-04T19:44:01.179Z,58.49
2019-03-04T19:44:32.479Z,58.94
2019-03-04T19:45:17.056Z,59.09
2019-03-04T19:45:49.221Z,59.90
2019-03-04T19:46:20.441Z,60.55
2019-03-04T19:46:51.600Z,61.42
2019-03-04T19:47:22.817Z,62.20
2019-03-04T19:47:53.964Z,62.81
2019-03-04T19:48:26.501Z,64.00
2019-03-04T19:48:57.685Z,64.80
2019-03-04T19:49:29.039Z,64.87
2019-03-04T19:50:00.389Z,64.38
2019-03-04T19:50:31.664Z,64.31
2019-03-04T19:51:02.839Z,64.29
2019-03-04T19:51:34.124Z,63.74
2019-03-04T19:52:05.331Z,63.23
2019-03-04T19:52:36.527Z,62.59
2019-03-04T19:53:08.694Z,62.22
2019-03-04T19:53:39.873Z,61.48
2019-03-04T19:54:11.044Z,60.72
2019-03-04T19:54:42.207Z,60.60
2019-03-04T19:55:16.396Z,60.07
2019-03-04T19:55:47.620Z,59.28
2019-03-04T19:56:18.836Z,58.88
2019-03-04T19:56:50.046Z,58.34
2019-03-04T19:57:21.262Z,58.29
2019-03-04T19:57:52.552Z,58.57
2019-03-04T19:58:23.737Z,58.84
2019-03-04T19:58:54.919Z,59.34
2019-03-04T19:59:26.113Z,59.87
2019-03-04T19:59:57.323Z,60.44
2019-03-04T20:00:29.570Z,60.87
2019-03-04T20:01:00.866Z,61.55
2019-03-04T20:01:32.102Z,62.19
2019-03-04T20:02:03.405Z,62.92
2019-03-04T20:02:34.582Z,64.23
2019-03-04T20:03:05.841Z,65.21
2019-03-04T20:03:37.002Z,64.99
2019-03-04T20:04:08.227Z,65.09
2019-03-04T20:04:39.393Z,64.87
2019-03-04T20:05:13.148Z,64.20
2019-03-04T20:05:45.412Z,63.90
2019-03-04T20:06:16.640Z,63.03
2019-03-04T20:06:47.808Z,62.70
2019-03-04T20:07:19.127Z,62.17
2019-03-04T20:07:50.301Z,61.50
2019-03-04T20:08:21.534Z,60.93
2019-03-04T20:08:52.698Z,60.23
2019-03-04T20:09:23.934Z,59.77
2019-03-04T20:09:55.102Z,59.53
2019-03-04T20:10:26.690Z,58.85
2019-03-04T20:10:57.850Z,58.06
2019-03-04T20:11:29.053Z,57.90
2019-03-04T20:12:00.226Z,57.80
2019-03-04T20:12:31.527Z,58.44
2019-03-04T20:13:02.704Z,58.74
2019-03-04T20:13:33.913Z,59.25
2019-03-04T20:14:05.183Z,59.66
2019-03-04T20:14:36.491Z,60.25
2019-03-04T20:15:27.055Z,61.27
2019-03-04T20:15:58.234Z,61.99
2019-03-04T20:16:29.483Z,62.74
2019-03-04T20:17:01.810Z,63.73
2019-03-04T20:17:33.006Z,64.47
2019-03-04T20:18:04.179Z,64.52
2019-03-04T20:18:36.463Z,64.62
2019-03-04T20:19:07.654Z,64.50
2019-03-04T20:19:38.841Z,64.07
2019-03-04T20:20:10.035Z,63.06
2019-03-04T20:20:41.231Z,62.51
2019-03-04T20:21:12.423Z,62.04
2019-03-04T20:21:43.698Z,61.56
2019-03-04T20:22:14.881Z,60.91
2019-03-04T20:22:47.066Z,60.31
2019-03-04T20:23:18.255Z,59.75
2019-03-04T20:23:49.448Z,59.08
2019-03-04T20:24:20.656Z,58.08
2019-03-04T20:24:51.858Z,57.53
2019-03-04T20:25:24.483Z,57.26
2019-03-04T20:25:55.841Z,57.16
2019-03-04T20:26:27.145Z,57.56
2019-03-04T20:26:58.305Z,57.74
2019-03-04T20:27:29.586Z,58.22
2019-03-04T20:28:00.744Z,58.72
2019-03-04T20:28:33.176Z,59.59
2019-03-04T20:29:04.348Z,60.24
2019-03-04T20:29:35.549Z,61.00
2019-03-04T20:30:22.858Z,61.69
2019-03-04T20:30:54.182Z,62.19
2019-03-04T20:31:25.366Z,63.00
2019-03-04T20:31:56.582Z,63.91
2019-03-04T20:32:27.835Z,64.47
2019-03-04T20:32:59.101Z,64.63
2019-03-04T20:33:30.277Z,64.44
2019-03-04T20:34:01.617Z,63.88
2019-03-04T20:34:32.880Z,63.15
2019-03-04T20:35:08.165Z,62.34
2019-03-04T20:35:39.780Z,61.86
2019-03-04T20:36:11.049Z,60.93
2019-03-04T20:36:42.373Z,60.42
2019-03-04T20:37:13.755Z,59.87
2019-03-04T20:38:07.135Z,59.28
2019-03-04T20:38:42.945Z,58.53
2019-03-04T20:39:14.244Z,57.99
2019-03-04T20:39:45.427Z,57.48
2019-03-04T20:40:18.598Z,57.82
2019-03-04T20:40:49.780Z,58.16
2019-03-04T20:41:20.955Z,58.73
2019-03-04T20:41:52.149Z,59.09
2019-03-04T20:42:23.361Z,59.65
2019-03-04T20:42:54.556Z,60.13
2019-03-04T20:43:25.759Z,60.66
2019-03-04T20:43:56.952Z,61.40
2019-03-04T20:44:28.125Z,61.95
2019-03-04T20:44:59.518Z,62.44
2019-03-04T20:45:31.717Z,63.22
2019-03-04T20:46:02.999Z,64.11
2019-03-04T20:46:34.211Z,64.60
2019-03-04T20:47:05.395Z,64.68
2019-03-04T20:47:36.593Z,64.41
2019-03-04T20:48:07.796Z,63.84
2019-03-04T20:48:39.029Z,63.13
2019-03-04T20:49:10.212Z,62.49
2019-03-04T20:49:41.600Z,61.77
2019-03-04T20:50:21.160Z,61.07
2019-03-04T20:50:52.367Z,60.46
2019-03-04T20:51:23.548Z,60.00
2019-03-04T20:51:54.766Z,59.18
2019-03-04T20:52:25.932Z,58.23
2019-03-04T20:52:57.146Z,57.59
2019-03-04T20:53:28.298Z,57.14
2019-03-04T20:53:59.542Z,57.20
2019-03-04T20:54:30.702Z,57.42
2019-03-04T20:55:04.567Z,57.96
2019-03-04T20:55:36.082Z,58.34
2019-03-04T20:56:07.716Z,58.98
2019-03-04T20:56:39.213Z,59.53
2019-03-04T20:57:10.459Z,60.12
2019-03-04T20:57:41.779Z,60.67
2019-03-04T20:58:13.023Z,61.34
2019-03-04T20:58:44.271Z,61.92
2019-03-04T20:59:15.532Z,62.58
2019-03-04T20:59:46.764Z,63.32
2019-03-04T21:00:37.463Z,64.16
2019-03-04T21:01:08.790Z,64.71
2019-03-04T21:01:40.039Z,64.49
2019-03-04T21:02:11.266Z,64.07
2019-03-04T21:02:42.506Z,63.30
2019-03-04T21:03:13.731Z,62.61
2019-03-04T21:03:45.080Z,61.88
2019-03-04T21:04:16.436Z,61.20
2019-03-04T21:04:47.663Z,60.62
2019-03-04T21:05:19.005Z,60.03
2019-03-04T21:05:50.310Z,59.45
2019-03-04T21:06:21.601Z,58.60
2019-03-04T21:06:55.724Z,57.93
2019-03-04T21:07:27.000Z,57.58
2019-03-04T21:07:58.341Z,57.64
2019-03-04T21:08:29.568Z,57.71
2019-03-04T21:09:00.768Z,58.24
2019-03-04T21:09:32.019Z,58.64
2019-03-04T21:10:08.331Z,59.23
2019-03-04T21:10:39.858Z,59.79
2019-03-04T21:11:11.338Z,60.46
2019-03-04T21:11:42.634Z,61.09
2019-03-04T21:12:50.223Z,61.84
2019-03-04T21:13:34.898Z,62.08
2019-03-04T21:13:57.526Z,63.77
2019-03-04T21:14:28.940Z,64.73
2019-03-04T21:15:00.251Z,65.38
2019-03-04T21:15:31.934Z,65.47
2019-03-04T21:16:03.206Z,65.08
2019-03-04T21:16:34.378Z,64.47
2019-03-04T21:17:05.624Z,63.75
2019-03-04T21:17:36.790Z,63.06
2019-03-04T21:18:08.030Z,62.52
2019-03-04T21:18:39.183Z,61.80
2019-03-04T21:19:10.404Z,61.11
2019-03-04T21:19:41.560Z,60.47
2019-03-04T21:20:17.352Z,59.90
2019-03-04T21:20:48.738Z,59.38
2019-03-04T21:21:19.950Z,58.59
2019-03-04T21:21:53.008Z,57.83
2019-03-04T21:22:24.229Z,57.38
2019-03-04T21:22:55.416Z,57.31
2019-03-04T21:23:26.740Z,57.52
2019-03-04T21:23:57.894Z,57.93
2019-03-04T21:24:29.626Z,58.41
2019-03-04T21:25:00.786Z,58.93
2019-03-04T21:25:49.363Z,59.57
2019-03-04T21:26:22.255Z,60.14
2019-03-04T21:26:53.479Z,61.14
2019-03-04T21:27:24.831Z,61.83
2019-03-04T21:27:56.077Z,62.51
2019-03-04T21:29:03.234Z,63.40
2019-03-04T21:29:46.090Z,64.69
2019-03-04T21:30:23.029Z,64.91
2019-03-04T21:31:16.378Z,64.45
2019-03-04T21:31:59.093Z,64.00
2019-03-04T21:32:36.029Z,63.06
2019-03-04T21:33:07.770Z,62.22
2019-03-04T21:34:07.297Z,61.39
2019-03-04T21:35:20.438Z,61.33
2019-03-04T21:36:03.420Z,60.69
2019-03-04T21:37:04.044Z,59.87
2019-03-04T21:37:38.558Z,59.52
2019-03-04T21:38:09.817Z,58.29
2019-03-04T21:38:40.966Z,57.45
2019-03-04T21:39:16.894Z,56.97
2019-03-04T21:39:59.129Z,56.94
2019-03-04T21:40:41.400Z,57.49
2019-03-04T21:41:24.168Z,57.88
2019-03-04T21:42:16.288Z,58.80
2019-03-04T21:42:58.242Z,59.42
2019-03-04T21:43:37.929Z,60.40
2019-03-04T21:44:32.776Z,61.24
2019-03-04T21:45:44.670Z,61.93
2019-03-04T21:46:57.604Z,62.75
2019-03-04T21:47:37.226Z,64.98
2019-03-04T21:48:26.006Z,66.11
2019-03-04T21:49:01.628Z,66.16
2019-03-04T21:49:37.796Z,65.35
2019-03-04T21:50:26.623Z,64.58
2019-03-04T21:51:12.640Z,63.92
2019-03-04T21:51:52.286Z,62.96
2019-03-04T21:52:32.156Z,62.03
2019-03-04T21:53:20.511Z,61.37
2019-03-04T21:53:51.855Z,60.78
2019-03-04T21:54:23.067Z,60.11
2019-03-04T21:54:54.213Z,59.45
2019-03-04T21:55:43.110Z,58.77
2019-03-04T21:56:34.507Z,58.14
2019-03-04T21:57:28.902Z,57.83
2019-03-04T21:58:00.219Z,58.30
2019-03-04T21:58:31.638Z,58.98
2019-03-04T21:59:05.887Z,59.58
2019-03-04T21:59:37.223Z,60.16
2019-03-04T22:00:15.875Z,60.84
2019-03-04T22:00:54.821Z,61.36
2019-03-04T22:01:34.809Z,62.12
2019-03-04T22:02:29.771Z,62.87
2019-03-04T22:03:09.046Z,64.18
2019-03-04T22:03:40.373Z,65.42
2019-03-04T22:04:11.709Z,65.47
2019-03-04T22:04:43.358Z,65.19
2019-03-04T22:05:16.896Z,64.83
2019-03-04T22:05:50.525Z,64.21
2019-03-04T22:06:22.514Z,63.68
2019-03-04T22:06:53.762Z,62.88
2019-03-04T22:07:25.013Z,62.33
2019-03-04T22:07:56.242Z,61.79
2019-03-04T22:08:27.451Z,61.21
2019-03-04T22:08:58.818Z,60.58
2019-03-04T22:09:30.328Z,60.30
2019-03-04T22:10:01.766Z,59.80
2019-03-04T22:10:33.097Z,59.46
2019-03-04T22:11:04.270Z,58.85
2019-03-04T22:11:37.004Z,58.27
2019-03-04T22:12:13.086Z,57.97
2019-03-04T22:12:44.488Z,58.13
2019-03-04T22:13:15.768Z,58.47
2019-03-04T22:13:47.052Z,58.91
2019-03-04T22:14:18.424Z,59.36
2019-03-04T22:14:49.629Z,59.98
2019-03-04T22:15:21.871Z,60.74
2019-03-04T22:15:53.084Z,61.31
2019-03-04T22:16:24.247Z,62.08
2019-03-04T22:16:55.481Z,62.65
2019-03-04T22:17:26.717Z,63.52
2019-03-04T22:17:59.936Z,64.57
2019-03-04T22:18:31.219Z,65.06
2019-03-04T22:19:02.476Z,65.00
2019-03-04T22:19:34.709Z,64.79
2019-03-04T22:20:11.627Z,64.17
2019-03-04T22:20:43.063Z,63.79
2019-03-04T22:21:16.662Z,63.16
2019-03-04T22:21:47.451Z,62.61
2019-03-04T22:22:18.697Z,61.99
2019-03-04T22:22:50.063Z,61.36
2019-03-04T22:23:22.334Z,60.86
2019-03-04T22:23:53.546Z,60.48
2019-03-04T22:24:24.712Z,59.92
2019-03-04T22:24:55.923Z,59.51
2019-03-04T22:25:27.075Z,59.03
2019-03-04T22:26:01.976Z,58.48
2019-03-04T22:26:31.345Z,58.15
2019-03-04T22:27:02.588Z,58.24
2019-03-04T22:27:33.829Z,58.57
2019-03-04T22:28:05.043Z,58.87
2019-03-04T22:28:36.230Z,59.51
2019-03-04T22:29:07.576Z,60.07
2019-03-04T22:29:38.799Z,60.68
2019-03-04T22:30:17.199Z,61.30
2019-03-04T22:30:48.548Z,61.97
2019-03-04T22:31:19.827Z,62.72
2019-03-04T22:31:51.039Z,63.61
2019-03-04T22:32:22.254Z,64.39
2019-03-04T22:32:54.488Z,64.92
2019-03-04T22:33:25.736Z,64.99
2019-03-04T22:33:56.987Z,64.71
2019-03-04T22:34:28.174Z,64.27
2019-03-04T22:34:59.481Z,63.58
2019-03-04T22:35:30.647Z,63.00
2019-03-04T22:36:02.146Z,62.33
2019-03-04T22:36:33.334Z,61.71
2019-03-04T22:37:04.558Z,61.20
2019-03-04T22:37:35.752Z,60.65
2019-03-04T22:38:06.980Z,60.11
2019-03-04T22:38:38.145Z,59.72
2019-03-04T22:39:09.392Z,59.18
2019-03-04T22:39:40.871Z,58.41
2019-03-04T22:40:21.716Z,57.90
2019-03-04T22:40:52.880Z,57.76
2019-03-04T22:41:24.075Z,57.88
2019-03-04T22:41:55.256Z,58.27
2019-03-04T22:42:26.457Z,58.77
2019-03-04T22:42:57.632Z,59.28
2019-03-04T22:43:29.192Z,59.90
2019-03-04T22:44:00.517Z,60.55
2019-03-04T22:44:31.655Z,61.16
2019-03-04T22:45:10.681Z,61.75
2019-03-04T22:45:41.851Z,62.34
2019-03-04T22:46:13.047Z,63.43
2019-03-04T22:46:44.235Z,64.48
2019-03-04T22:47:15.437Z,65.04
2019-03-04T22:47:48.905Z,65.15
2019-03-04T22:48:20.125Z,64.90
2019-03-04T22:48:51.322Z,64.39
2019-03-04T22:49:22.499Z,63.64
2019-03-04T22:49:53.680Z,62.93
2019-03-04T22:50:24.864Z,62.39
2019-03-04T22:50:56.035Z,61.78
2019-03-04T22:51:27.238Z,61.24
2019-03-04T22:51:58.668Z,60.65
2019-03-04T22:52:29.844Z,60.19
2019-03-04T22:53:01.040Z,59.74
2019-03-04T22:53:32.354Z,59.20
2019-03-04T22:54:03.635Z,58.51
2019-03-04T22:54:34.844Z,58.05
2019-03-04T22:55:17.040Z,57.90
2019-03-04T22:55:48.219Z,58.08
2019-03-04T22:56:19.394Z,58.45
2019-03-04T22:56:50.577Z,58.80
2019-03-04T22:57:21.766Z,59.29
2019-03-04T22:57:52.950Z,59.87
2019-03-04T22:58:28.609Z,60.48
2019-03-04T22:58:57.264Z,60.94
2019-03-04T22:59:28.410Z,61.83
2019-03-04T22:59:59.616Z,62.34
2019-03-04T23:00:51.610Z,63.06
2019-03-04T23:01:30.878Z,64.22
2019-03-04T23:02:02.216Z,64.75
2019-03-04T23:02:33.513Z,64.42
2019-03-04T23:03:04.693Z,63.88
2019-03-04T23:03:36.914Z,63.06
2019-03-04T23:04:14.482Z,62.52
2019-03-04T23:04:45.668Z,61.99
2019-03-04T23:05:17.340Z,61.24
2019-03-04T23:06:06.007Z,60.65
2019-03-04T23:06:42.890Z,60.50
2019-03-04T23:07:14.078Z,59.67
2019-03-04T23:07:46.445Z,59.10
2019-03-04T23:08:17.622Z,58.14
2019-03-04T23:08:48.803Z,57.52
2019-03-04T23:09:23.821Z,57.25
2019-03-04T23:09:57.815Z,57.46
2019-03-04T23:10:30.699Z,57.74
2019-03-04T23:11:02.193Z,58.10
2019-03-04T23:11:33.425Z,58.72
2019-03-04T23:12:25.427Z,59.28
2019-03-04T23:12:57.858Z,59.72
2019-03-04T23:13:58.815Z,60.79
2019-03-04T23:14:30.021Z,61.80
2019-03-04T23:15:01.185Z,62.76
2019-03-04T23:15:32.406Z,63.77
2019-03-04T23:16:04.664Z,64.50
2019-03-04T23:16:35.880Z,64.84
2019-03-04T23:17:07.027Z,64.69
2019-03-04T23:17:38.233Z,64.26
2019-03-04T23:18:09.398Z,63.63
2019-03-04T23:18:40.620Z,62.96
2019-03-04T23:19:11.773Z,62.35
2019-03-04T23:19:42.999Z,61.78
2019-03-04T23:20:14.171Z,61.25
2019-03-04T23:20:45.390Z,60.70
2019-03-04T23:21:17.560Z,60.00
2019-03-04T23:21:48.783Z,59.36
2019-03-04T23:22:19.941Z,58.74
2019-03-04T23:22:51.136Z,58.01
2019-03-04T23:23:22.286Z,57.79
2019-03-04T23:23:53.479Z,57.85
2019-03-04T23:24:24.644Z,58.10
2019-03-04T23:24:55.892Z,58.38
2019-03-04T23:25:27.049Z,58.87
2019-03-04T23:25:58.255Z,59.43
2019-03-04T23:26:29.398Z,59.83
2019-03-04T23:27:00.602Z,60.41
2019-03-04T23:27:31.762Z,60.94
2019-03-04T23:28:02.976Z,61.65
2019-03-04T23:28:34.140Z,62.29
2019-03-04T23:29:05.372Z,62.76
2019-03-04T23:29:36.542Z,63.29
2019-03-04T23:30:13.972Z,64.35
2019-03-04T23:30:45.134Z,64.76
2019-03-04T23:31:16.356Z,64.66
2019-03-04T23:31:47.599Z,64.35
2019-03-04T23:32:18.812Z,63.63
2019-03-04T23:32:49.989Z,62.99
2019-03-04T23:33:23.092Z,62.39
2019-03-04T23:33:54.240Z,61.75
2019-03-04T23:34:25.643Z,61.04
2019-03-04T23:34:56.784Z,60.40
2019-03-04T23:35:27.998Z,59.74
2019-03-04T23:35:59.162Z,59.30
2019-03-04T23:36:30.379Z,58.40
2019-03-04T23:37:01.760Z,57.72
2019-03-04T23:37:33.018Z,57.38
2019-03-04T23:38:04.224Z,57.44
2019-03-04T23:38:35.435Z,57.64
2019-03-04T23:39:06.994Z,58.07
2019-03-04T23:39:38.879Z,58.57
2019-03-04T23:40:10.188Z,59.04
2019-03-04T23:40:41.347Z,59.61
2019-03-04T23:41:14.236Z,60.08
2019-03-04T23:41:45.487Z,60.75
2019-03-04T23:42:16.657Z,61.19
2019-03-04T23:42:47.829Z,61.80
2019-03-04T23:43:19.031Z,62.25
2019-03-04T23:43:50.191Z,62.82
2019-03-04T23:44:21.355Z,63.69
2019-03-04T23:44:52.535Z,64.37
2019-03-04T23:45:23.735Z,64.78
2019-03-04T23:45:54.901Z,64.70
2019-03-04T23:46:26.112Z,64.32
2019-03-04T23:46:57.279Z,63.68
2019-03-04T23:47:28.859Z,62.97
2019-03-04T23:48:00.123Z,62.19
2019-03-04T23:48:31.629Z,61.48
2019-03-04T23:49:02.782Z,60.64
2019-03-04T23:49:33.991Z,60.01
2019-03-04T23:50:22.971Z,59.44
2019-03-04T23:50:54.314Z,58.71
2019-03-04T23:51:25.482Z,57.93
2019-03-04T23:51:58.816Z,57.59
2019-03-04T23:52:29.980Z,57.69
2019-03-04T23:53:01.194Z,57.95
2019-03-04T23:53:32.408Z,58.31
2019-03-04T23:54:03.672Z,58.78
2019-03-04T23:54:34.836Z,59.34
2019-03-04T23:55:07.142Z,59.83
2019-03-04T23:55:38.302Z,60.27
2019-03-04T23:56:09.546Z,60.77
2019-03-04T23:56:40.692Z,61.20
2019-03-04T23:57:11.903Z,61.69
2019-03-04T23:57:43.066Z,62.29
2019-03-04T23:58:14.272Z,62.98
2019-03-04T23:58:45.434Z,63.76
2019-03-04T23:59:16.648Z,64.06
2019-03-04T23:59:47.807Z,64.11
